Time;durP1;ratioP1;P1;durP2;ratioP2;P2;SDS_P1;SDS_P2;PMS_P1;PMS_P2;Temp;Humidity;BMP_temperature;BMP_pressure;BME280_temperature;BME280_humidity;BME280_pressure;Samples;Min_cycle;Max_cycle;Signal;HPM_P1;HPM_P2
2022/05/17 00:02:39;;;;;;;;;37.00;32.00;;;;;16.94;77.66;99602.38;6286791;20;3602371;-54
2022/05/17 00:05:41;;;;;;;;;31.33;30.33;;;;;16.81;78.12;99604.47;6285748;20;3597124;-52
2022/05/17 00:08:57;;;;;;;;;26.00;26.00;;;;;17.14;75.81;99602.41;6285352;20;2729442;-51
2022/05/17 00:12:04;;;;;;;;;32.00;28.67;;;;;17.28;75.94;99600.19;6281419;20;3582614;-52
2022/05/17 00:15:53;;;;;;;;;36.67;32.67;;;;;16.84;78.15;99596.91;6280349;20;3591003;-53
2022/05/17 00:19:31;;;;;;;;;35.67;33.67;;;;;16.97;77.93;99582.25;6312849;20;3602309;-51
2022/05/17 00:22:17;;;;;;;;;35.33;30.00;;;;;16.87;78.00;99584.91;6280204;20;3596062;-52
2022/05/17 00:25:49;;;;;;;;;;;;;;;;;;;;;
2022/05/17 00:28:52;;;;;;;;;33.00;32.00;;;;;17.15;76.57;99580.59;6312298;20;3588379;-51
2022/05/17 00:31:59;;;;;;;;;42.00;33.67;;;;;17.08;77.36;99579.41;6281102;20;3608574;-54
2022/05/17 00:35:35;;;;;;;;;;;;;;;;;;;;;
2022/05/17 00:38:49;;;;;;;;;33.00;30.00;;;;;16.56;80.21;99562.34;6281454;20;3602291;-53
2022/05/17 00:42:09;;;;;;;;;36.33;31.67;;;;;16.53;81.38;99565.34;6277899;20;3594057;-55
2022/05/17 00:45:47;;;;;;;;;33.33;31.33;;;;;16.56;80.69;99565.94;6282412;20;3607504;-51
2022/05/17 00:48:38;;;;;;;;;34.33;32.00;;;;;16.48;80.58;99557.59;6282311;20;3598182;-54
2022/05/17 00:51:58;;;;;;;;;34.00;30.67;;;;;16.61;80.46;99568.22;6282657;20;3608572;-52
2022/05/17 00:56:25;;;;;;;;;31.33;30.33;;;;;16.45;80.78;99555.19;6278490;20;3603359;-53
2022/05/17 01:00:01;;;;;;;;;37.67;32.00;;;;;16.50;80.27;99555.63;6280198;20;3599218;-54
2022/05/17 01:03:25;;;;;;;;;31.33;30.00;;;;;16.40;81.14;99563.72;6284106;20;3602340;-53
2022/05/17 01:06:36;;;;;;;;;36.33;30.00;;;;;16.31;81.10;99560.97;6285325;20;3623232;-50
2022/05/17 01:09:59;;;;;;;;;38.33;33.00;;;;;16.12;82.66;99550.88;6317018;20;3599202;-49
2022/05/17 01:16:52;;;;;;;;;37.33;33.67;;;;;16.26;81.90;99536.97;6287633;20;3616880;-52
2022/05/17 01:20:03;;;;;;;;;37.00;33.33;;;;;15.74;84.40;99550.44;6287711;20;3595597;-53
2022/05/17 01:23:24;;;;;;;;;35.00;32.33;;;;;15.79;85.44;99539.25;6286192;20;3607575;-52
2022/05/17 01:26:23;;;;;;;;;36.67;33.33;;;;;15.74;85.22;99542.34;6286550;20;3610795;-52
2022/05/17 01:29:16;;;;;;;;;34.33;31.67;;;;;15.69;85.74;99544.59;6285039;20;3598160;-51
2022/05/17 01:32:30;;;;;;;;;36.00;32.00;;;;;15.95;84.42;99545.03;6288857;20;3608643;-50
2022/05/17 01:35:32;;;;;;;;;;;;;;;;;;;;;
2022/05/17 01:38:50;;;;;;;;;36.33;33.00;;;;;16.12;82.37;99540.03;6317549;20;3595136;-50
2022/05/17 01:42:06;;;;;;;;;34.67;31.67;;;;;16.00;83.19;99539.25;6288762;20;3600294;-52
2022/05/17 01:45:33;;;;;;;;;36.33;33.00;;;;;16.27;81.17;99537.81;6284834;20;3604478;-54
2022/05/17 01:49:00;;;;;;;;;33.67;30.67;;;;;16.22;82.02;99530.97;6284935;20;3591914;-54
2022/05/17 01:52:35;;;;;;;;;;;;;;;;;;;;;
2022/05/17 01:56:17;;;;;;;;;33.00;30.33;;;;;16.32;82.20;99528.28;6313717;20;3587780;-54
2022/05/17 01:59:57;;;;;;;;;34.67;31.33;;;;;16.30;82.35;99524.88;6281098;20;3606457;-55
2022/05/17 02:03:37;;;;;;;;;36.00;30.00;;;;;16.63;80.66;99525.59;6315551;20;3599235;-52
2022/05/17 02:06:36;;;;;;;;;28.33;28.33;;;;;16.85;79.48;99517.28;6283871;20;3585967;-55
2022/05/17 02:14:54;;;;;;;;;33.67;31.00;;;;;16.73;79.15;99517.50;6280978;20;3593971;-53
2022/05/17 02:18:41;;;;;;;;;29.50;28.00;;;;;16.80;79.45;99524.97;6282753;20;2838765;-53
2022/05/17 02:22:22;;;;;;;;;33.00;30.00;;;;;16.75;79.58;99529.91;6286637;20;3596450;-50
2022/05/17 02:26:14;;;;;;;;;34.00;30.33;;;;;16.99;78.09;99526.88;6283919;20;3584605;-50
2022/05/17 02:30:04;;;;;;;;;;;;;;;;;;;;;
2022/05/17 02:33:26;;;;;;;;;33.00;30.00;;;;;16.64;80.52;99519.16;6313145;20;3596060;-50
2022/05/17 02:36:50;;;;;;;;;34.00;31.67;;;;;16.76;79.65;99517.22;6281598;20;3610698;-50
2022/05/17 02:40:06;;;;;;;;;29.00;28.67;;;;;16.67;80.06;99518.91;6282167;20;3585655;-51
2022/05/17 02:43:41;;;;;;;;;30.67;29.67;;;;;16.78;79.72;99516.13;6280710;20;3589862;-50
2022/05/17 02:46:45;;;;;;;;;34.00;30.00;;;;;16.84;79.37;99509.28;6282229;20;3602425;-53
2022/05/17 02:50:38;;;;;;;;;33.67;30.00;;;;;16.82;80.12;99516.69;6284831;20;3602380;-54
2022/05/17 02:54:11;;;;;;;;;30.33;29.00;;;;;16.99;78.92;99521.44;6284623;20;2844092;-48
2022/05/17 02:57:34;;;;;;;;;34.67;31.33;;;;;16.80;80.45;99518.69;6316872;20;3597148;-53
2022/05/17 03:00:52;;;;;;;;;;;;;;;;;;;;;
2022/05/17 03:04:16;;;;;;;;;35.00;30.67;;;;;16.97;79.59;99511.72;6284974;20;3591891;-51
2022/05/17 03:07:34;;;;;;;;;35.33;31.33;;;;;16.73;80.64;99520.22;6280209;20;3602344;-51
2022/05/17 03:11:29;;;;;;;;;;;;;;;;;;;;;
2022/05/17 03:14:46;;;;;;;;;32.33;29.00;;;;;16.49;81.62;99509.72;6285968;20;3578510;-52
2022/05/17 03:17:55;;;;;;;;;30.67;29.67;;;;;16.38;81.98;99508.81;6282243;20;3578369;-53
2022/05/17 03:20:43;;;;;;;;;28.67;28.00;;;;;16.62;79.74;99513.88;6279195;20;3580448;-52
2022/05/17 03:23:51;;;;;;;;;29.33;27.33;;;;;16.64;80.20;99520.03;6284405;20;3580455;-50
2022/05/17 03:26:53;;;;;;;;;34.33;32.00;;;;;16.66;79.30;99511.75;6284403;20;3593019;-51
2022/05/17 03:30:33;;;;;;;;;33.33;32.00;;;;;16.79;79.39;99519.69;6283908;20;3599192;-54
2022/05/17 03:34:02;;;;;;;;;31.00;29.00;;;;;17.01;77.36;99527.59;6281132;20;3600701;-53
2022/05/17 03:37:05;;;;;;;;;31.33;27.67;;;;;17.42;75.89;99524.78;6310240;20;3578350;-52
2022/05/17 03:40:17;;;;;;;;;31.00;30.00;;;;;17.04;76.84;99521.03;6284640;20;3573671;-51
2022/05/17 03:42:58;;;;;;;;;36.00;29.00;;;;;16.71;78.50;99523.03;6283932;20;3608593;-53
2022/05/17 03:50:03;;;;;;;;;31.67;30.33;;;;;17.08;77.29;99533.31;6282999;20;3591871;-52
2022/05/17 03:53:42;;;;;;;;;28.00;26.33;;;;;17.29;76.29;99536.75;6281334;20;3587889;-51
2022/05/17 03:57:37;;;;;;;;;29.67;28.67;;;;;17.20;76.57;99531.34;6282604;20;3597153;-52
2022/05/17 04:01:20;;;;;;;;;25.33;25.33;;;;;17.39;75.37;99538.66;6282949;20;3594013;-53
2022/05/17 04:04:17;;;;;;;;;27.00;26.33;;;;;17.22;76.54;99540.19;6284543;20;3599215;-53
2022/05/17 04:07:18;;;;;;;;;31.33;29.67;;;;;17.44;75.90;99534.50;6280181;20;3579422;-53
2022/05/17 04:10:19;;;;;;;;;33.33;30.00;;;;;17.48;75.33;99533.22;6283428;20;3596057;-54
2022/05/17 04:13:28;;;;;;;;;29.00;28.00;;;;;17.72;75.45;99531.91;6281479;20;3581675;-53
2022/05/17 04:16:40;;;;;;;;;34.00;30.00;;;;;17.47;77.59;99534.22;6280493;20;3593990;-53
2022/05/17 04:19:40;;;;;;;;;33.00;29.33;;;;;17.46;77.87;99532.50;6284748;20;3589818;-54
2022/05/17 04:22:58;;;;;;;;;31.67;29.67;;;;;17.30;78.30;99549.34;6277136;20;3576281;-52
2022/05/17 04:26:25;;;;;;;;;;;;;;;;;;;;;
2022/05/17 04:29:36;;;;;;;;;31.33;30.00;;;;;17.67;77.57;99537.78;6276874;20;3582729;-55
2022/05/17 04:32:35;;;;;;;;;27.00;27.00;;;;;17.76;75.28;99538.78;6277885;20;3577549;-52
2022/05/17 04:35:17;;;;;;;;;31.33;30.00;;;;;18.03;72.89;99546.19;6275879;20;3580509;-52
2022/05/17 04:38:47;;;;;;;;;26.67;26.33;;;;;18.16;72.50;99549.47;6281511;20;3596125;-53
2022/05/17 04:42:08;;;;;;;;;28.00;24.67;;;;;18.18;72.41;99557.47;6281043;20;3594022;-52
2022/05/17 04:45:44;;;;;;;;;25.00;25.00;;;;;17.98;75.11;99556.66;6274726;20;3588883;-55
2022/05/17 04:48:53;;;;;;;;;28.00;26.00;;;;;18.42;71.80;99551.56;6280380;20;3576420;-53
2022/05/17 04:52:01;;;;;;;;;21.67;21.67;;;;;18.40;68.72;99542.69;6279124;20;3584588;-54
2022/05/17 04:54:54;;;;;;;;;20.67;18.33;;;;;18.54;67.60;99560.41;6283926;20;3567988;-55
2022/05/17 04:58:04;;;;;;;;;20.33;20.33;;;;;18.50;68.47;99573.41;6277940;20;2840924;-50
2022/05/17 05:01:28;;;;;;;;;21.00;19.00;;;;;18.74;66.97;99555.72;6318387;20;3574193;-52
2022/05/17 05:05:12;;;;;;;;;18.00;17.00;;;;;18.82;66.31;99543.09;6280150;20;2826309;-53
2022/05/17 05:08:35;;;;;;;;;22.00;20.00;;;;;18.79;65.99;99551.56;6283013;20;2829446;-51
2022/05/17 05:12:30;;;;;;;;;19.00;19.00;;;;;18.76;67.12;99553.75;6287455;20;3557610;-51
2022/05/17 05:16:17;;;;;;;;;22.33;21.00;;;;;18.84;68.56;99556.56;6314687;20;3582536;-53
2022/05/17 05:24:01;;;;;;;;;17.67;17.67;;;;;18.83;66.64;99543.97;6286980;20;3573213;-52
2022/05/17 05:27:26;;;;;;;;;27.00;25.00;;;;;18.62;67.50;99552.34;6282028;20;3604500;-53
2022/05/17 05:35:02;;;;;;;;;23.67;21.00;;;;;18.89;66.52;99556.13;6285589;20;3567039;-54
2022/05/17 05:38:37;;;;;;;;;18.00;17.00;;;;;18.88;65.49;99548.94;6279588;20;2829389;-52
2022/05/17 05:41:58;;;;;;;;;19.50;18.50;;;;;19.02;63.43;99548.47;6282233;20;2831503;-53
2022/05/17 05:45:18;;;;;;;;;19.33;17.67;;;;;19.06;63.66;99536.25;6281881;20;3574707;-52
2022/05/17 05:48:47;;;;;;;;;20.00;17.50;;;;;19.24;63.22;99542.56;6278606;20;2832580;-55
2022/05/17 05:52:12;;;;;;;;;19.33;17.67;;;;;19.34;62.86;99550.69;6280574;20;2500413;-55
2022/05/17 05:56:02;;;;;;;;;21.00;18.00;;;;;19.29;62.52;99553.84;6314767;20;3560665;-56
2022/05/17 05:59:31;;;;;;;;;18.00;17.00;;;;;19.13;64.06;99553.69;6314077;20;3571555;-54
2022/05/17 06:03:20;;;;;;;;;16.00;16.00;;;;;19.62;62.32;99550.63;6281525;20;2826327;-53
2022/05/17 06:07:00;;;;;;;;;14.33;14.00;;;;;19.48;60.89;99558.34;6282138;20;3546110;-53
2022/05/17 06:10:42;;;;;;;;;14.50;14.50;;;;;20.05;58.65;99562.59;6280593;20;2812777;-56
2022/05/17 06:17:47;;;;;;;;;18.50;15.50;;;;;20.13;57.73;99565.41;6283422;20;2828390;-58
2022/05/17 06:21:28;;;;;;;;;18.33;17.33;;;;;20.38;57.00;99563.72;6283273;20;3565914;-57
2022/05/17 06:25:17;;;;;;;;;;;;;;;;;;;;;
2022/05/17 06:28:45;;;;;;;;;16.00;16.00;;;;;21.44;53.73;99561.50;6285653;20;2823158;-57
2022/05/17 06:32:15;;;;;;;;;;;;;;;;;;;;;
2022/05/17 06:35:53;;;;;;;;;16.50;15.00;;;;;21.76;52.27;99565.28;6284232;20;2819128;-54
2022/05/17 06:39:13;;;;;;;;;16.00;15.50;;;;;22.22;50.90;99576.63;6281876;20;2822170;-55
2022/05/17 06:42:18;;;;;;;;;15.00;13.67;;;;;22.73;50.50;99573.59;6284801;20;3541984;-55
2022/05/17 06:45:33;;;;;;;;;17.50;17.50;;;;;22.02;49.99;99576.06;6283504;20;2829429;-57
2022/05/17 06:52:27;;;;;;;;;18.67;17.00;;;;;22.29;49.40;99587.72;6289373;20;3568971;-58
2022/05/17 06:55:37;;;;;;;;;18.00;17.00;;;;;22.21;49.55;99584.97;6287478;20;3557673;-55
2022/05/17 06:58:37;;;;;;;;;13.67;13.67;;;;;22.22;49.06;99581.22;6284042;20;2494502;-57
2022/05/17 07:01:31;;;;;;;;;16.67;15.33;;;;;22.64;48.37;99574.66;6318483;20;3558663;-48
2022/05/17 07:04:43;;;;;;;;;16.00;16.00;;;;;22.48;47.89;99584.59;6318753;20;3556490;-54
2022/05/17 07:07:41;;;;;;;;;17.00;16.00;;;;;23.04;47.85;99576.44;6342791;20;3571071;-49
2022/05/17 07:14:55;;;;;;;;;15.00;14.00;;;;;22.70;47.86;99576.69;6316896;20;2807596;-55
2022/05/17 07:18:13;;;;;;;;;19.33;16.33;;;;;22.26;48.34;99588.06;6284266;20;2483681;-55
2022/05/17 07:21:04;;;;;;;;;21.00;17.67;;;;;22.58;48.13;99582.53;6316322;20;3570034;-51
2022/05/17 07:23:53;;;;;;;;;16.00;15.50;;;;;22.65;48.00;99595.53;6281194;20;2821099;-52
2022/05/17 07:27:26;;;;;;;;;15.00;15.00;;;;;22.24;48.02;99590.09;6288142;20;2483692;-50
2022/05/17 07:30:42;;;;;;;;;15.50;14.50;;;;;22.61;46.91;99584.06;6311603;20;2811834;-51
2022/05/17 07:33:51;;;;;;;;;18.33;16.00;;;;;23.52;45.80;99584.59;6284400;20;2489826;-52
2022/05/17 07:36:28;;;;;;;;;15.67;15.00;;;;;24.14;45.33;99583.63;6321601;20;3539783;-57
2022/05/17 07:39:08;;;;;;;;;14.33;14.33;;;;;23.67;45.09;99588.22;6316444;20;3530428;-51
2022/05/17 07:42:31;;;;;;;;;13.00;13.00;;;;;22.98;47.06;99583.44;6315841;20;3533640;-51
2022/05/17 07:45:55;;;;;;;;;14.00;11.33;;;;;23.17;46.59;99575.84;6289226;20;2789966;-53
2022/05/17 07:48:54;;;;;;;;;14.33;14.33;;;;;22.78;47.82;99573.94;6315459;20;3524312;-51
2022/05/17 07:52:00;;;;;;;;;;;;;;;;;;;;;
2022/05/17 07:55:08;;;;;;;;;16.00;16.00;;;;;23.34;47.39;99571.16;6316380;20;2829429;-54
2022/05/17 07:58:19;;;;;;;;;;;;;;;;;;;;;
2022/05/17 08:01:41;;;;;;;;;17.00;15.33;;;;;23.24;48.02;99574.09;6285040;20;3552363;-50
2022/05/17 08:04:54;;;;;;;;;15.33;15.33;;;;;23.28;48.61;99578.22;6316831;20;2483569;-54
2022/05/17 08:08:00;;;;;;;;;16.00;14.00;;;;;23.37;48.04;99582.59;6315771;20;2823256;-53
2022/05/17 08:10:47;;;;;;;;;15.33;15.33;;;;;23.76;46.95;99578.13;6283313;20;2487797;-54
2022/05/17 08:14:08;;;;;;;;;19.67;13.00;;;;;24.02;45.99;99575.84;6318824;20;2839852;-53
2022/05/17 08:17:28;;;;;;;;;;;;;;;;;;;;;
2022/05/17 08:20:58;;;;;;;;;15.67;13.67;;;;;24.46;44.52;99582.50;6312528;20;3546048;-53
2022/05/17 08:24:32;;;;;;;;;;;;;;;;;;;;;
2022/05/17 08:27:37;;;;;;;;;15.33;15.33;;;;;24.28;44.94;99585.59;6312473;20;2483623;-49
2022/05/17 08:30:53;;;;;;;;;13.33;13.33;;;;;24.03;46.21;99583.03;6313568;20;2489795;-52
2022/05/17 08:34:37;;;;;;;;;13.33;13.33;;;;;24.72;45.41;99599.41;6313669;20;3538181;-54
2022/05/17 08:38:16;;;;;;;;;15.00;13.67;;;;;25.46;44.39;99598.53;6285732;20;2483563;-49
2022/05/17 08:41:47;;;;;;;;;15.00;13.67;;;;;25.79;43.67;99604.41;6316849;20;3535638;-54
2022/05/17 08:46:22;;;;;;;;;15.00;15.00;;;;;24.89;46.12;99599.22;6312633;20;2807672;-53
2022/05/17 08:50:47;;;;;;;;;17.00;15.50;;;;;24.74;46.46;99597.31;6279494;20;2831580;-53
2022/05/17 08:54:10;;;;;;;;;19.00;17.67;;;;;24.64;48.59;99599.47;6286349;20;3558622;-51
2022/05/17 08:58:43;;;;;;;;;15.00;15.00;;;;;24.32;49.65;99608.84;6284936;20;3543978;-55
2022/05/17 09:02:38;;;;;;;;;20.00;18.00;;;;;24.50;49.82;99597.56;6310615;20;2833600;-55
2022/05/17 09:05:57;;;;;;;;;29.67;27.33;;;;;24.66;51.04;99602.91;6284136;20;3592999;-56
2022/05/17 09:08:43;;;;;;;;;19.67;17.00;;;;;23.92;52.20;99604.56;6284355;20;3556514;-54
2022/05/17 09:11:49;;;;;;;;;17.00;17.00;;;;;23.60;52.44;99599.09;6281936;20;2832628;-55
2022/05/17 09:14:30;;;;;;;;;89.88;79.00;;;;;23.75;53.26;99601.06;6278978;20;3676301;-55
2022/05/17 09:17:13;;;;;;;;;19.00;19.00;;;;;23.26;54.57;99604.91;6282548;20;3571076;-53
2022/05/17 09:19:43;;;;;;;;;45.33;35.67;;;;;23.59;55.69;99607.47;6281608;20;3602334;-58
2022/05/17 09:22:11;;;;;;;;;20.33;18.33;;;;;22.94;57.58;99609.47;6288081;20;3558637;-52
2022/05/17 09:24:45;;;;;;;;;17.00;16.50;;;;;22.62;59.27;99610.41;6287445;20;2821227;-53
2022/05/17 09:27:52;;;;;;;;;22.67;19.67;;;;;22.54;60.22;99618.66;6289552;20;3577348;-54
2022/05/17 09:30:23;;;;;;;;;23.67;17.00;;;;;22.28;62.55;99605.16;6282541;20;3591935;-54
2022/05/17 09:33:21;;;;;;;;;22.00;20.33;;;;;22.30;65.68;99606.69;6286489;20;3586834;-53
2022/05/17 09:35:58;;;;;;;;;23.00;21.33;;;;;22.26;67.59;99601.72;6289467;20;3575449;-54
2022/05/17 09:38:39;;;;;;;;;20.00;18.67;;;;;21.86;68.25;99606.13;6289136;20;3569086;-54
2022/05/17 09:41:23;;;;;;;;;17.00;16.33;;;;;21.46;69.44;99605.03;6288531;20;3563146;-54
2022/05/17 09:44:21;;;;;;;;;20.00;19.33;;;;;21.34;69.40;99609.06;6320779;20;3570047;-51
2022/05/17 09:47:45;;;;;;;;;22.33;21.33;;;;;20.81;74.86;99595.53;6321621;20;3575250;-55
2022/05/17 09:53:15;;;;;;;;;19.00;19.00;;;;;20.50;77.23;99594.28;6317363;20;3571092;-54
2022/05/17 09:55:56;;;;;;;;;23.50;19.50;;;;;20.55;76.13;99600.16;6284400;20;3509604;-53
2022/05/17 09:58:42;;;;;;;;;21.33;19.00;;;;;20.70;73.72;99600.41;6320057;20;3580505;-52
2022/05/17 10:01:39;;;;;;;;;15.00;15.00;;;;;20.45;75.86;99602.09;6285647;20;2500298;-53
2022/05/17 10:04:12;;;;;;;;;22.33;20.00;;;;;20.55;72.75;99602.88;6286677;20;3560749;-54
2022/05/17 10:06:55;;;;;;;;;20.67;20.67;;;;;20.51;74.07;99599.59;6320164;20;3576310;-53
2022/05/17 10:09:34;;;;;;;;;19.00;19.00;;;;;20.48;73.67;99601.75;6288353;20;3568042;-55
2022/05/17 10:12:29;;;;;;;;;19.33;17.67;;;;;20.67;72.22;99607.06;6289872;20;3565300;-52
2022/05/17 10:15:10;;;;;;;;;21.33;18.00;;;;;20.51;72.35;99606.88;6287224;20;3562718;-52
2022/05/17 10:17:49;;;;;;;;;19.00;19.00;;;;;20.67;73.31;99606.16;6314071;20;2841927;-54
2022/05/17 10:20:27;;;;;;;;;22.33;19.33;;;;;20.58;72.15;99611.56;6281578;20;3577308;-54
2022/05/17 10:23:22;;;;;;;;;21.50;18.50;;;;;20.57;71.94;99607.16;6281956;20;2828377;-52
2022/05/17 10:26:18;;;;;;;;;18.00;18.00;;;;;20.65;71.47;99614.53;6285265;20;2824260;-57
2022/05/17 10:29:02;;;;;;;;;16.67;15.67;;;;;20.46;71.65;99611.97;6284172;20;2822273;-57
2022/05/17 10:31:43;;;;;;;;;19.00;17.00;;;;;20.65;71.47;99609.06;6312573;20;2833679;-58
2022/05/17 10:34:18;;;;;;;;;17.50;17.50;;;;;20.58;71.00;99608.84;6280383;20;2823337;-57
2022/05/17 10:36:54;;;;;;;;;19.00;15.00;;;;;20.61;71.80;99604.94;6282676;20;2483685;-58
2022/05/17 10:39:57;;;;;;;;;19.00;17.50;;;;;20.90;70.54;99606.47;6281140;20;2828377;-55
2022/05/17 10:42:27;;;;;;;;;16.00;15.50;;;;;21.02;70.61;99602.44;6279032;20;2491988;-57
2022/05/17 10:44:58;;;;;;;;;17.50;16.00;;;;;21.07;68.28;99597.34;6283351;20;2827372;-57
2022/05/17 10:48:11;;;;;;;;;17.00;16.00;;;;;21.07;67.43;99600.09;6284344;20;2815903;-55
2022/05/17 10:51:28;;;;;;;;;14.00;12.67;;;;;21.16;65.38;99596.34;6278970;20;3532643;-52
2022/05/17 10:55:03;;;;;;;;;12.00;12.00;;;;;21.10;63.55;99594.28;6282221;20;3511794;-54
2022/05/17 10:58:22;;;;;;;;;15.00;13.00;;;;;21.11;62.20;99582.34;6310173;20;3537859;-57
2022/05/17 11:01:06;;;;;;;;;14.00;12.00;;;;;21.24;61.66;99582.72;6277898;20;3519099;-58
2022/05/17 11:04:21;;;;;;;;;10.67;10.67;;;;;21.16;60.34;99590.91;6310726;20;3504391;-56
2022/05/17 11:07:23;;;;;;;;;14.00;13.33;;;;;21.04;60.01;99592.22;6311821;20;2491955;-57
2022/05/17 11:10:58;;;;;;;;;13.33;11.33;;;;;20.92;60.33;99599.00;6310286;20;2781605;-57
2022/05/17 11:13:50;;;;;;;;;10.00;10.00;;;;;20.42;61.81;99600.53;6308758;20;3514846;-57
2022/05/17 11:16:33;;;;;;;;;13.00;12.00;;;;;20.16;64.39;99600.50;6309460;20;3503403;-53
2022/05/17 11:19:22;;;;;;;;;11.33;11.00;;;;;20.03;68.07;99591.88;6309486;20;3520041;-57
2022/05/17 11:22:32;;;;;;;;;13.67;12.00;;;;;19.45;74.32;99596.75;6313973;20;3530473;-53
2022/05/17 11:25:53;;;;;;;;;13.33;10.33;;;;;19.29;75.94;99604.72;6310720;20;3515889;-53
2022/05/17 11:29:01;;;;;;;;;15.33;13.00;;;;;18.75;79.05;99598.28;6282663;20;3535690;-54
2022/05/17 11:31:36;;;;;;;;;14.67;14.67;;;;;18.35;82.59;99583.03;6280584;20;3538820;-53
2022/05/17 11:34:30;;;;;;;;;14.00;13.33;;;;;18.51;80.98;99575.16;6279206;20;3526507;-54
2022/05/17 11:37:05;;;;;;;;;16.67;15.33;;;;;18.40;82.75;99573.47;6279027;20;3554502;-54
2022/05/17 11:39:49;;;;;;;;;17.00;15.00;;;;;18.19;84.98;99579.09;6279665;20;3552386;-52
2022/05/17 11:42:35;;;;;;;;;18.50;18.50;;;;;18.16;89.79;99576.63;6282353;20;2827330;-55
2022/05/17 11:45:50;;;;;;;;;16.00;12.67;;;;;18.12;89.97;99569.81;6280000;20;3539815;-50
2022/05/17 11:48:23;;;;;;;;;15.00;15.00;;;;;18.41;87.21;99568.88;6279207;20;3530451;-55
2022/05/17 11:51:00;;;;;;;;;17.50;15.50;;;;;18.17;91.47;99566.66;6279546;20;2821132;-56
2022/05/17 11:53:33;;;;;;;;;15.50;13.50;;;;;18.53;86.28;99558.66;6280484;20;2802340;-54
2022/05/17 11:56:14;;;;;;;;;21.50;16.50;;;;;18.66;85.51;99551.03;6279210;20;2491968;-55
2022/05/17 11:58:49;;;;;;;;;19.00;19.00;;;;;18.70;85.52;99551.59;6280051;20;2841942;-54
2022/05/17 12:01:29;;;;;;;;;19.33;19.33;;;;;18.76;85.04;99548.31;6309998;20;3563796;-54
2022/05/17 12:04:42;;;;;;;;;19.50;17.00;;;;;18.78;85.73;99541.72;6284127;20;2489859;-54
2022/05/17 12:07:26;;;;;;;;;18.33;18.00;;;;;18.81;85.64;99546.00;6312812;20;3577423;-56
2022/05/17 12:10:16;;;;;;;;;18.00;18.00;;;;;18.93;85.64;99550.25;6275603;20;2831658;-54
2022/05/17 12:13:05;;;;;;;;;18.00;18.00;;;;;19.11;86.89;99558.41;6279858;20;2483678;-52
2022/05/17 12:15:51;;;;;;;;;16.00;16.00;;;;;19.22;84.79;99551.91;6277407;20;2827334;-55
2022/05/17 12:19:02;;;;;;;;;22.33;19.00;;;;;19.63;84.46;99549.59;6285639;20;3565866;-52
2022/05/17 12:22:08;;;;;;;;;17.50;16.50;;;;;20.04;83.41;99550.84;6270973;20;2832549;-54
2022/05/17 12:25:15;;;;;;;;;22.00;21.00;;;;;19.82;81.40;99554.91;6280922;20;3589812;-55
2022/05/17 12:27:46;;;;;;;;;25.67;23.00;;;;;20.17;82.18;99550.44;6284413;20;3583578;-52
2022/05/17 12:30:53;;;;;;;;;26.00;22.33;;;;;20.51;81.76;99552.34;6276918;20;3594009;-53
2022/05/17 12:33:45;;;;;;;;;24.00;22.00;;;;;20.64;80.73;99546.47;6281447;20;2847835;-51
2022/05/17 12:36:32;;;;;;;;;24.67;24.33;;;;;20.67;81.43;99549.75;6314435;20;3602421;-52
2022/05/17 12:44:59;;;;;;;;;30.67;27.00;;;;;20.95;79.12;99538.59;6308438;20;3591946;-51
2022/05/17 12:47:51;;;;;;;;;31.00;27.00;;;;;21.01;79.67;99537.94;6312166;20;3581497;-53
2022/05/17 12:50:37;;;;;;;;;25.00;24.67;;;;;21.03;77.30;99542.22;6277276;20;3595115;-54
2022/05/17 12:53:38;;;;;;;;;28.00;26.00;;;;;21.23;76.95;99531.88;6277778;20;3597201;-53
2022/05/17 12:56:12;;;;;;;;;31.67;27.67;;;;;21.38;76.35;99528.50;6277733;20;3585665;-53
2022/05/17 12:59:05;;;;;;;;;26.33;26.33;;;;;21.75;76.41;99525.34;6289661;20;3603375;-54
2022/05/17 13:01:56;;;;;;;;;27.33;25.00;;;;;22.05;74.89;99529.25;6289792;20;3600268;-53
2022/05/17 13:04:37;;;;;;;;;21.67;21.33;;;;;21.92;70.03;99523.44;6286804;20;3585631;-55
2022/05/17 13:07:17;;;;;;;;;19.33;17.33;;;;;21.80;67.88;99527.53;6286485;20;3552318;-51
2022/05/17 13:10:13;;;;;;;;;20.67;20.67;;;;;22.15;67.46;99526.34;6317726;20;3583656;-55
2022/05/17 13:12:43;;;;;;;;;17.00;14.00;;;;;22.35;62.95;99526.81;6284022;20;2815912;-53
2022/05/17 13:15:12;;;;;;;;;12.00;11.00;;;;;21.89;62.41;99526.53;6285506;20;3520582;-53
2022/05/17 13:17:43;;;;;;;;;12.00;11.00;;;;;21.45;58.89;99510.44;6284589;20;2786698;-54
2022/05/17 13:20:30;;;;;;;;;11.33;11.33;;;;;21.75;57.26;99516.25;6310906;20;3536722;-54
2022/05/17 13:22:59;;;;;;;;;13.33;12.00;;;;;22.14;61.97;99505.47;6287804;20;2785698;-51
2022/05/17 13:25:40;;;;;;;;;10.67;10.67;;;;;21.81;59.82;99510.13;6313421;20;2791942;-55
2022/05/17 13:28:10;;;;;;;;;14.33;14.00;;;;;21.84;60.57;99507.88;6311922;20;2487754;-53
2022/05/17 13:30:45;;;;;;;;;14.67;12.00;;;;;21.61;59.61;99506.88;6311805;20;3517921;-53
2022/05/17 13:33:37;;;;;;;;;12.00;11.00;;;;;21.69;59.08;99504.97;6278951;20;3542965;-53
2022/05/17 13:36:15;;;;;;;;;12.00;10.67;;;;;21.67;58.17;99506.22;6282336;20;3513776;-54
2022/05/17 13:38:45;;;;;;;;;12.00;11.00;;;;;21.50;58.46;99505.31;6312376;20;3511716;-51
2022/05/17 13:41:41;;;;;;;;;11.67;8.67;;;;;21.15;58.94;99501.81;6320718;20;2770109;-54
2022/05/17 13:44:45;;;;;;;;;10.67;9.00;;;;;20.85;57.96;99499.69;6313368;20;2769000;-55
2022/05/17 13:47:33;;;;;;;;;14.00;12.00;;;;;20.84;59.31;99509.75;6322121;20;2675353;-54
2022/05/17 13:50:16;;;;;;;;;9.75;9.00;;;;;20.71;60.43;99502.00;6334086;20;3484669;-53
2022/05/17 13:52:48;;;;;;;;;11.00;11.00;;;;;20.75;61.70;99495.22;6314413;20;2800247;-50
2022/05/17 13:55:40;;;;;;;;;12.00;12.00;;;;;20.80;61.34;99505.63;6289187;20;2781491;-53
2022/05/17 13:58:12;;;;;;;;;12.67;11.00;;;;;20.85;62.18;99507.84;6310570;20;3506470;-53
2022/05/17 14:01:06;;;;;;;;;9.00;8.50;;;;;20.72;63.75;99497.41;6318817;20;2753416;-50
2022/05/17 14:03:35;;;;;;;;;11.33;11.33;;;;;21.01;64.03;99499.72;6290924;20;2804564;-51
2022/05/17 14:06:07;;;;;;;;;13.00;11.00;;;;;20.92;62.82;99492.53;6317309;20;3526306;-54
2022/05/17 14:11:52;;;;;;;;;10.33;10.33;;;;;20.99;63.24;99491.72;6282949;20;3515915;-50
2022/05/17 14:14:24;;;;;;;;;12.67;12.00;;;;;21.31;63.89;99481.03;6315154;20;3524356;-52
2022/05/17 14:17:03;;;;;;;;;10.67;10.67;;;;;21.30;62.58;99482.03;6280325;20;3509652;-53
2022/05/17 14:19:35;;;;;;;;;12.00;12.00;;;;;21.13;63.87;99478.44;6311248;20;3540972;-52
2022/05/17 14:22:07;;;;;;;;;12.33;12.33;;;;;21.38;64.35;99482.97;6279813;20;3522115;-52
2022/05/17 14:24:36;;;;;;;;;11.67;10.33;;;;;21.64;63.24;99479.19;6313007;20;2790119;-52
2022/05/17 14:27:05;;;;;;;;;11.00;11.00;;;;;21.50;62.97;99483.47;6312423;20;3510888;-51
2022/05/17 14:29:34;;;;;;;;;11.33;10.33;;;;;21.74;64.10;99481.75;6284379;20;2795238;-52
2022/05/17 14:32:05;;;;;;;;;11.00;9.67;;;;;21.60;59.62;99478.69;6311685;20;2793148;-56
2022/05/17 14:34:41;;;;;;;;;11.00;11.00;;;;;21.56;60.92;99481.94;6312715;20;2483729;-57
2022/05/17 14:37:12;;;;;;;;;12.33;9.00;;;;;21.41;60.87;99476.31;6318176;20;2775378;-54
2022/05/17 14:39:41;;;;;;;;;13.00;11.00;;;;;21.58;60.51;99474.41;6320041;20;2793996;-52
2022/05/17 14:42:13;;;;;;;;;11.00;8.40;;;;;21.62;59.97;99486.72;6338757;20;2769084;-53
2022/05/17 14:44:42;;;;;;;;;14.33;12.00;;;;;21.36;60.93;99478.66;6282082;20;3529453;-56
2022/05/17 14:47:24;;;;;;;;;11.00;10.00;;;;;21.77;61.50;99481.41;6310277;20;3513818;-56
2022/05/17 14:49:59;;;;;;;;;13.00;11.00;;;;;21.68;62.30;99481.41;6310496;20;3520058;-58
2022/05/17 14:52:30;;;;;;;;;8.33;8.33;;;;;21.77;60.84;99475.94;6278954;20;2748321;-57
2022/05/17 14:54:58;;;;;;;;;9.33;9.33;;;;;21.48;61.06;99474.56;6313343;20;3489798;-58
2022/05/17 14:57:27;;;;;;;;;15.00;12.00;;;;;21.60;61.27;99472.38;6316467;20;2804453;-57
2022/05/17 14:59:55;;;;;;;;;12.67;12.33;;;;;21.56;63.01;99476.47;6312716;20;2483593;-52